Time;durP1;ratioP1;P1;durP2;ratioP2;P2;SDS_P1;SDS_P2;PMS_P1;PMS_P2;Temp;Humidity;BMP_temperature;BMP_pressure;BME280_temperature;BME280_humidity;BME280_pressure;Samples;Min_cycle;Max_cycle;Signal;HPM_P1;HPM_P2
2021/08/15 00:01:15;;;;;;;11.88;10.35;;;21.50;78.20;;;;;;6270341;28;20413;-77
2021/08/15 00:04:18;;;;;;;11.27;9.95;;;21.40;78.30;;;;;;6270273;28;20505;-77
2021/08/15 00:07:20;;;;;;;10.90;9.80;;;21.40;78.50;;;;;;6273352;28;20924;-77
2021/08/15 00:10:23;;;;;;;11.07;9.97;;;21.40;78.40;;;;;;6275896;28;20483;-78
2021/08/15 00:13:24;;;;;;;10.98;9.70;;;21.40;78.40;;;;;;6275645;28;20413;-77
2021/08/15 00:16:26;;;;;;;10.57;9.50;;;21.40;78.10;;;;;;6275492;28;20531;-77
2021/08/15 00:19:30;;;;;;;13.18;9.85;;;21.40;77.80;;;;;;6274056;28;20487;-77
2021/08/15 00:22:32;;;;;;;15.70;10.60;;;21.40;77.70;;;;;;6274284;28;20902;-77
2021/08/15 00:25:34;;;;;;;18.60;10.93;;;21.40;77.80;;;;;;6273695;28;20504;-77
2021/08/15 00:28:36;;;;;;;10.90;9.88;;;21.40;77.80;;;;;;6273524;28;20906;-77
2021/08/15 00:31:38;;;;;;;13.65;10.10;;;21.30;77.70;;;;;;6274518;28;20779;-77
2021/08/15 00:34:41;;;;;;;11.55;9.65;;;21.30;77.80;;;;;;6271792;28;20476;-76
2021/08/15 00:37:43;;;;;;;15.90;9.80;;;21.20;78.10;;;;;;6274164;28;20474;-77
2021/08/15 00:40:45;;;;;;;10.65;9.55;;;21.20;79.00;;;;;;6278856;28;20413;-77
2021/08/15 00:43:46;;;;;;;10.88;9.77;;;21.20;78.40;;;;;;6273919;28;20670;-77
2021/08/15 00:46:49;;;;;;;11.90;10.52;;;21.20;78.10;;;;;;6274345;28;20512;-76
2021/08/15 00:49:52;;;;;;;10.20;9.18;;;21.20;78.10;;;;;;6275608;28;20470;-77
2021/08/15 00:52:54;;;;;;;11.82;10.40;;;21.20;78.00;;;;;;6275874;28;20437;-77
2021/08/15 00:55:57;;;;;;;11.93;9.15;;;21.10;78.00;;;;;;6273511;28;20409;-77
2021/08/15 00:58:59;;;;;;;11.57;9.88;;;21.10;78.10;;;;;;6273447;28;20893;-77
2021/08/15 01:02:01;;;;;;;18.50;9.15;;;21.20;78.00;;;;;;6273332;28;20909;-77
2021/08/15 01:05:05;;;;;;;12.35;10.38;;;21.20;77.60;;;;;;6272911;28;20417;-77
2021/08/15 01:08:07;;;;;;;12.13;10.17;;;21.10;77.60;;;;;;6272644;28;20794;-77
2021/08/15 01:11:10;;;;;;;11.65;9.80;;;21.00;77.80;;;;;;6272931;28;20437;-77
2021/08/15 01:14:12;;;;;;;13.40;10.82;;;20.90;78.20;;;;;;6274230;28;20524;-77
2021/08/15 01:17:14;;;;;;;11.75;10.00;;;20.80;78.40;;;;;;6272191;28;20410;-77
2021/08/15 01:20:17;;;;;;;10.38;9.13;;;20.80;78.50;;;;;;6273147;28;20512;-77
2021/08/15 01:23:19;;;;;;;13.15;9.48;;;20.80;78.70;;;;;;6272608;28;20967;-77
2021/08/15 01:26:22;;;;;;;10.25;8.77;;;20.80;78.70;;;;;;6272685;28;20918;-77
2021/08/15 01:29:26;;;;;;;10.53;9.23;;;20.70;78.60;;;;;;6272389;28;20413;-77
2021/08/15 01:32:27;;;;;;;11.53;9.37;;;20.70;78.40;;;;;;6272214;28;20469;-77
2021/08/15 01:35:30;;;;;;;9.82;8.75;;;20.70;78.40;;;;;;6272110;28;20824;-77
2021/08/15 01:38:33;;;;;;;11.45;9.15;;;20.60;78.60;;;;;;6272908;28;20425;-77
2021/08/15 01:41:35;;;;;;;11.88;9.93;;;20.60;78.30;;;;;;6272247;28;20779;-78
2021/08/15 01:44:38;;;;;;;10.27;9.23;;;20.70;78.50;;;;;;6272197;28;20502;-77
2021/08/15 01:47:40;;;;;;;11.82;9.63;;;20.60;78.20;;;;;;6272537;28;20417;-77
2021/08/15 01:50:42;;;;;;;9.15;8.25;;;20.70;79.20;;;;;;6273357;28;20511;-77
2021/08/15 01:53:44;;;;;;;10.90;8.93;;;20.80;78.30;;;;;;6276421;28;20435;-77
2021/08/15 01:56:46;;;;;;;12.88;9.48;;;20.90;77.50;;;;;;6275818;28;20559;-77
2021/08/15 01:59:49;;;;;;;10.63;9.60;;;21.00;77.50;;;;;;6275152;28;20445;-77
2021/08/15 02:02:51;;;;;;;9.82;8.88;;;20.90;77.50;;;;;;6275771;28;20435;-77
2021/08/15 02:05:53;;;;;;;13.88;9.45;;;20.90;77.50;;;;;;6273041;28;20530;-77
2021/08/15 02:08:55;;;;;;;11.13;9.98;;;20.80;77.70;;;;;;6274246;28;20760;-77
2021/08/15 02:11:57;;;;;;;13.82;9.43;;;20.80;77.90;;;;;;6272612;28;20424;-76
2021/08/15 02:15:00;;;;;;;11.88;10.18;;;20.90;78.40;;;;;;6271646;28;20481;-76
2021/08/15 02:18:02;;;;;;;11.13;10.02;;;20.90;78.10;;;;;;6269070;28;20449;-76
2021/08/15 02:21:04;;;;;;;11.43;9.57;;;21.00;77.80;;;;;;6269569;28;20876;-76
2021/08/15 02:24:06;;;;;;;12.32;10.13;;;21.00;77.70;;;;;;6271224;28;20499;-77
2021/08/15 02:27:08;;;;;;;9.82;8.68;;;21.00;77.50;;;;;;6270763;28;20491;-76
2021/08/15 02:30:13;;;;;;;11.98;10.05;;;21.10;77.50;;;;;;6270230;28;20939;-76
2021/08/15 02:33:15;;;;;;;12.43;10.57;;;21.00;77.10;;;;;;6270982;28;20930;-76
2021/08/15 02:36:17;;;;;;;10.47;9.47;;;21.00;77.70;;;;;;6270727;28;20493;-77
2021/08/15 02:39:19;;;;;;;11.70;9.35;;;21.10;77.20;;;;;;6270873;28;20547;-76
2021/08/15 02:42:21;;;;;;;11.80;10.60;;;21.10;76.70;;;;;;6271126;28;20936;-76
2021/08/15 02:45:26;;;;;;;15.65;9.43;;;21.10;76.60;;;;;;6270877;28;20506;-76
2021/08/15 02:48:28;;;;;;;12.93;10.55;;;21.10;76.10;;;;;;6270622;28;20479;-76
2021/08/15 02:51:30;;;;;;;11.85;9.23;;;21.10;76.00;;;;;;6270627;28;20421;-76
2021/08/15 02:54:32;;;;;;;11.38;10.20;;;21.10;75.00;;;;;;6270788;28;20437;-76
2021/08/15 02:57:34;;;;;;;10.38;9.10;;;21.10;75.50;;;;;;6270135;28;20414;-77
2021/08/15 03:00:37;;;;;;;11.38;9.48;;;21.20;75.60;;;;;;6270320;28;20506;-76
2021/08/15 03:03:39;;;;;;;11.55;9.35;;;21.20;76.30;;;;;;6271717;28;20445;-75
2021/08/15 03:06:42;;;;;;;12.90;9.30;;;21.10;76.20;;;;;;6273285;28;20516;-76
2021/08/15 03:09:44;;;;;;;11.57;9.98;;;21.10;76.70;;;;;;6270204;28;20898;-76
2021/08/15 03:12:46;;;;;;;12.13;9.50;;;21.00;76.10;;;;;;6270307;28;20539;-77
2021/08/15 03:15:49;;;;;;;13.40;9.83;;;20.90;76.60;;;;;;6269831;28;20518;-77
2021/08/15 03:18:51;;;;;;;12.10;10.20;;;20.70;77.40;;;;;;6270186;28;20436;-76
2021/08/15 03:21:53;;;;;;;11.80;9.47;;;20.70;78.30;;;;;;6270559;28;20516;-77
2021/08/15 03:24:55;;;;;;;13.35;9.50;;;20.60;77.40;;;;;;6270035;28;20409;-77
2021/08/15 03:27:56;;;;;;;16.10;9.63;;;20.60;77.30;;;;;;6269421;28;20917;-76
2021/08/15 03:30:59;;;;;;;10.93;8.85;;;20.50;77.60;;;;;;6270136;28;20556;-76
2021/08/15 03:34:01;;;;;;;14.88;10.20;;;20.40;77.70;;;;;;6270409;28;20433;-77
2021/08/15 03:37:03;;;;;;;10.75;9.65;;;20.40;78.00;;;;;;6269566;28;20434;-77
2021/08/15 03:40:07;;;;;;;9.73;8.77;;;20.30;78.40;;;;;;6269923;28;20493;-76
2021/08/15 03:43:08;;;;;;;13.85;9.38;;;20.30;78.50;;;;;;6274618;28;20488;-76
2021/08/15 03:46:11;;;;;;;14.50;10.57;;;20.30;78.00;;;;;;6274945;28;20600;-76
2021/08/15 03:49:13;;;;;;;14.88;9.63;;;20.20;78.00;;;;;;6274796;28;20860;-75
2021/08/15 03:52:15;;;;;;;12.40;9.90;;;20.30;78.00;;;;;;6274585;28;20499;-76
2021/08/15 03:55:17;;;;;;;12.40;9.13;;;20.30;77.80;;;;;;6274602;28;20492;-76
2021/08/15 03:58:19;;;;;;;12.02;8.77;;;20.40;77.50;;;;;;6274673;28;20512;-75
2021/08/15 04:01:22;;;;;;;10.50;9.40;;;20.30;77.60;;;;;;6274329;28;20574;-75
2021/08/15 04:04:24;;;;;;;10.03;8.77;;;20.30;77.60;;;;;;6274323;28;20500;-75
2021/08/15 04:07:25;;;;;;;10.15;9.15;;;20.40;77.50;;;;;;6273625;28;20484;-75
2021/08/15 04:10:27;;;;;;;13.00;9.50;;;20.40;77.20;;;;;;6274527;28;20436;-76
2021/08/15 04:13:29;;;;;;;15.25;9.63;;;20.40;77.00;;;;;;6274132;28;20420;-76
2021/08/15 04:16:32;;;;;;;12.23;9.80;;;20.40;77.00;;;;;;6273516;28;20901;-76
2021/08/15 04:19:34;;;;;;;10.82;9.55;;;20.30;77.20;;;;;;6274133;28;20500;-75
2021/08/15 04:22:36;;;;;;;12.52;9.45;;;20.40;77.20;;;;;;6274237;28;21017;-76
2021/08/15 04:25:38;;;;;;;9.93;8.93;;;20.40;76.70;;;;;;6273279;28;20421;-75
2021/08/15 04:28:39;;;;;;;10.80;8.57;;;20.50;76.80;;;;;;6273525;28;20413;-76
2021/08/15 04:31:43;;;;;;;10.65;8.32;;;20.60;75.20;;;;;;6273749;28;20495;-76
2021/08/15 04:34:45;;;;;;;10.10;8.05;;;20.70;73.10;;;;;;6273521;28;20782;-76
2021/08/15 04:37:46;;;;;;;14.13;8.05;;;20.80;73.30;;;;;;6273881;28;20564;-76
2021/08/15 04:40:50;;;;;;;13.10;7.97;;;20.90;71.20;;;;;;6273350;28;20510;-76
2021/08/15 04:43:52;;;;;;;8.45;7.35;;;20.90;71.60;;;;;;6273611;28;20413;-76
2021/08/15 04:46:55;;;;;;;12.75;8.30;;;20.90;71.20;;;;;;6272776;28;20463;-76
2021/08/15 04:49:58;;;;;;;8.60;7.25;;;20.90;71.10;;;;;;6273480;28;20542;-75
2021/08/15 04:53:00;;;;;;;13.13;8.00;;;21.00;71.80;;;;;;6272199;28;20443;-75
2021/08/15 04:56:03;;;;;;;9.98;6.93;;;21.00;70.70;;;;;;6272583;28;20474;-76
2021/08/15 04:59:05;;;;;;;11.52;7.30;;;21.00;70.10;;;;;;6273130;28;20424;-76
2021/08/15 05:02:08;;;;;;;9.15;6.85;;;21.00;69.80;;;;;;6273217;28;20432;-75
2021/08/15 05:05:11;;;;;;;12.15;6.68;;;21.20;68.10;;;;;;6273035;28;20422;-75
2021/08/15 05:08:13;;;;;;;12.02;6.10;;;21.20;67.90;;;;;;6272489;28;20414;-75
2021/08/15 05:11:16;;;;;;;7.70;6.07;;;21.30;67.00;;;;;;6273035;28;20487;-76
2021/08/15 05:14:18;;;;;;;11.20;6.68;;;21.50;66.90;;;;;;6273215;28;20440;-76
2021/08/15 05:17:21;;;;;;;10.35;6.35;;;21.60;66.70;;;;;;6272393;28;20895;-75
2021/08/15 05:20:23;;;;;;;9.93;5.78;;;21.80;64.90;;;;;;6272641;28;20445;-76
2021/08/15 05:23:25;;;;;;;8.32;5.55;;;21.90;64.80;;;;;;6272652;28;20470;-76
2021/08/15 05:26:27;;;;;;;7.82;5.45;;;22.00;65.40;;;;;;6272877;28;20510;-75
2021/08/15 05:29:29;;;;;;;9.23;6.40;;;22.20;65.00;;;;;;6272273;28;20405;-76
2021/08/15 05:32:32;;;;;;;8.95;6.28;;;22.30;63.10;;;;;;6272703;28;20500;-76
2021/08/15 05:35:34;;;;;;;12.02;5.97;;;22.40;64.50;;;;;;6272404;28;20425;-76
2021/08/15 05:38:36;;;;;;;8.38;6.10;;;22.50;62.90;;;;;;6272668;28;20483;-76
2021/08/15 05:41:37;;;;;;;10.87;6.53;;;22.60;62.90;;;;;;6272491;28;20425;-76
2021/08/15 05:44:39;;;;;;;13.43;7.18;;;22.70;62.90;;;;;;6271903;28;20461;-76
2021/08/15 05:47:42;;;;;;;14.68;5.80;;;23.00;62.80;;;;;;6271610;28;20470;-76
2021/08/15 05:50:44;;;;;;;7.90;6.07;;;23.20;61.50;;;;;;6272117;28;20568;-76
2021/08/15 05:53:46;;;;;;;10.10;6.30;;;23.40;61.20;;;;;;6272157;28;20919;-76
2021/08/15 05:56:48;;;;;;;11.25;7.35;;;23.60;60.30;;;;;;6271506;28;20467;-76
2021/08/15 05:59:50;;;;;;;10.90;6.35;;;23.70;59.90;;;;;;6271984;28;20539;-76
2021/08/15 06:02:53;;;;;;;9.57;5.80;;;24.00;59.60;;;;;;6271557;28;20459;-76
2021/08/15 06:05:55;;;;;;;10.00;6.90;;;24.00;59.70;;;;;;6251837;28;20913;-76
2021/08/15 06:08:57;;;;;;;12.03;6.17;;;24.00;59.90;;;;;;6264335;28;20497;-76
2021/08/15 06:12:04;;;;;;;9.38;6.22;;;24.10;59.10;;;;;;6246974;28;20424;-76
2021/08/15 06:15:12;;;;;;;8.00;6.10;;;24.20;58.60;;;;;;6266772;28;20412;-76
2021/08/15 06:18:16;;;;;;;12.95;6.57;;;24.40;58.30;;;;;;6271530;28;20425;-76
2021/08/15 06:21:18;;;;;;;9.60;6.73;;;24.50;57.40;;;;;;6269914;28;20529;-76
2021/08/15 06:24:20;;;;;;;13.37;6.03;;;24.70;57.90;;;;;;6246320;28;20426;-76
2021/08/15 06:27:22;;;;;;;10.75;6.20;;;24.90;57.50;;;;;;6246038;28;20480;-76
2021/08/15 06:30:23;;;;;;;9.15;6.00;;;25.10;56.50;;;;;;6246978;28;20562;-76
2021/08/15 06:33:27;;;;;;;6.95;6.25;;;25.20;56.00;;;;;;6245896;28;20880;-76
2021/08/15 06:36:28;;;;;;;9.52;6.28;;;25.20;56.00;;;;;;6245705;28;20966;-77
2021/08/15 06:39:30;;;;;;;13.77;7.00;;;25.20;56.50;;;;;;6256439;28;20417;-76
2021/08/15 06:42:32;;;;;;;9.70;6.93;;;25.40;56.00;;;;;;6271333;28;20530;-76
2021/08/15 06:45:34;;;;;;;12.60;8.38;;;25.60;55.50;;;;;;6270162;28;20875;-76
2021/08/15 06:48:37;;;;;;;9.53;6.97;;;25.80;55.50;;;;;;6270311;28;20500;-76
2021/08/15 06:51:39;;;;;;;9.63;6.88;;;26.00;55.10;;;;;;6270418;28;20901;-76
2021/08/15 06:54:41;;;;;;;10.43;7.47;;;26.00;55.30;;;;;;6270290;28;20429;-76
2021/08/15 06:57:43;;;;;;;10.95;7.90;;;26.30;55.10;;;;;;6270650;28;20506;-76
2021/08/15 07:00:45;;;;;;;13.13;6.63;;;26.30;54.70;;;;;;6270081;28;20498;-77
2021/08/15 07:03:48;;;;;;;9.10;6.93;;;26.40;55.40;;;;;;6270498;28;20903;-77
2021/08/15 07:06:50;;;;;;;10.15;6.72;;;26.60;55.20;;;;;;6270155;28;20536;-75
2021/08/15 07:09:52;;;;;;;11.63;7.00;;;26.70;55.60;;;;;;6271727;28;21170;-76
2021/08/15 07:12:55;;;;;;;8.90;7.47;;;27.00;54.60;;;;;;6265745;28;20891;-76
2021/08/15 07:15:57;;;;;;;13.40;7.82;;;27.20;53.10;;;;;;6245472;28;20418;-75
2021/08/15 07:19:00;;;;;;;10.13;6.88;;;27.00;54.20;;;;;;6246056;28;20502;-76
2021/08/15 07:22:02;;;;;;;12.70;8.53;;;27.00;54.90;;;;;;6247362;28;20948;-76
2021/08/15 07:25:04;;;;;;;14.03;8.43;;;27.00;53.40;;;;;;6247572;28;20960;-76
2021/08/15 07:28:07;;;;;;;9.48;7.07;;;26.70;54.20;;;;;;6246633;28;20940;-76
2021/08/15 07:31:08;;;;;;;9.88;7.30;;;26.60;55.40;;;;;;6248190;28;20964;-76
2021/08/15 07:34:11;;;;;;;8.40;6.40;;;26.70;56.00;;;;;;6248107;28;20927;-76
2021/08/15 07:37:13;;;;;;;8.00;7.20;;;27.00;54.30;;;;;;6248026;28;20431;-75
2021/08/15 07:40:17;;;;;;;9.15;6.57;;;27.20;54.50;;;;;;6248249;28;20853;-76
2021/08/15 07:43:19;;;;;;;10.70;6.73;;;27.40;53.80;;;;;;6277894;28;20558;-75
2021/08/15 07:46:20;;;;;;;9.67;6.60;;;27.40;51.80;;;;;;6269429;28;20950;-75
2021/08/15 07:49:24;;;;;;;7.07;5.70;;;27.30;51.20;;;;;;6269784;28;20565;-75
2021/08/15 07:52:25;;;;;;;9.48;6.07;;;27.10;52.30;;;;;;6269663;28;20484;-75
2021/08/15 07:55:27;;;;;;;8.75;5.55;;;27.20;52.40;;;;;;6233124;28;20463;-75
2021/08/15 07:58:29;;;;;;;8.75;6.20;;;27.30;51.70;;;;;;6269814;28;20433;-75
2021/08/15 08:01:31;;;;;;;9.32;6.75;;;27.60;52.10;;;;;;6269128;28;20449;-75
2021/08/15 08:04:37;;;;;;;7.43;6.55;;;27.70;50.30;;;;;;6269597;28;20437;-75
2021/08/15 08:07:39;;;;;;;10.63;6.43;;;27.70;50.10;;;;;;6268668;28;20791;-75
2021/08/15 08:10:42;;;;;;;9.35;6.53;;;27.60;52.10;;;;;;6269579;28;20489;-75
2021/08/15 08:13:47;;;;;;;10.10;6.40;;;27.80;50.80;;;;;;6258715;28;20469;-76
2021/08/15 08:16:49;;;;;;;9.75;6.88;;;27.90;50.80;;;;;;6244363;28;20773;-75
2021/08/15 08:19:52;;;;;;;7.70;6.75;;;28.00;50.40;;;;;;6244673;28;20451;-76
2021/08/15 08:22:54;;;;;;;8.98;6.97;;;28.20;50.20;;;;;;6244632;28;20458;-76
2021/08/15 08:25:57;;;;;;;7.18;6.13;;;28.40;50.70;;;;;;6244755;28;20470;-75
2021/08/15 08:28:59;;;;;;;6.82;6.13;;;28.60;49.10;;;;;;6247174;28;20481;-75
2021/08/15 08:32:01;;;;;;;10.70;6.65;;;28.50;49.70;;;;;;6249182;28;20419;-75
2021/08/15 08:35:05;;;;;;;10.13;6.60;;;28.50;50.00;;;;;;6249436;28;20418;-76
2021/08/15 08:38:06;;;;;;;7.72;6.47;;;28.60;50.10;;;;;;6249250;28;20429;-76
2021/08/15 08:41:11;;;;;;;7.60;6.75;;;28.90;50.40;;;;;;6253662;28;20801;-76
2021/08/15 08:44:14;;;;;;;9.23;7.27;;;29.20;49.00;;;;;;6297065;28;20494;-75
2021/08/15 08:47:16;;;;;;;7.70;6.28;;;29.50;47.90;;;;;;6297952;28;20525;-76
2021/08/15 08:50:20;;;;;;;7.85;6.63;;;29.40;47.50;;;;;;6298252;28;20427;-76
2021/08/15 08:53:23;;;;;;;8.88;6.80;;;29.70;47.60;;;;;;6297941;28;20526;-75
2021/08/15 08:56:24;;;;;;;9.85;6.20;;;30.00;47.40;;;;;;6297569;28;20945;-75
2021/08/15 08:59:27;;;;;;;8.40;6.85;;;30.10;46.60;;;;;;6297818;28;20416;-76
2021/08/15 09:02:29;;;;;;;8.77;6.53;;;30.30;46.40;;;;;;6298636;28;20424;-77
2021/08/15 09:05:34;;;;;;;7.65;6.22;;;30.50;46.60;;;;;;6297317;28;20443;-76
2021/08/15 09:08:35;;;;;;;9.13;6.60;;;30.40;45.90;;;;;;6298278;28;20534;-75
2021/08/15 09:11:37;;;;;;;9.93;6.15;;;30.20;46.10;;;;;;6297855;28;20412;-74
2021/08/15 09:14:39;;;;;;;8.38;6.82;;;29.90;46.50;;;;;;6279558;28;20520;-75
2021/08/15 09:17:42;;;;;;;9.10;6.35;;;29.80;48.10;;;;;;6272473;28;20578;-75
2021/08/15 09:20:47;;;;;;;7.05;6.35;;;29.80;47.70;;;;;;6272660;28;20500;-75
2021/08/15 09:23:59;;;;;;;8.75;6.72;;;30.10;47.80;;;;;;6272989;28;20424;-75
2021/08/15 09:27:02;;;;;;;9.82;6.95;;;30.30;46.60;;;;;;6272043;28;20471;-76
2021/08/15 09:30:08;;;;;;;7.43;6.30;;;30.70;46.80;;;;;;6272985;28;20429;-76
2021/08/15 09:33:15;;;;;;;9.05;6.18;;;30.90;45.00;;;;;;6272381;28;20445;-75
2021/08/15 09:36:30;;;;;;;8.27;6.80;;;30.70;45.90;;;;;;6272477;28;20420;-75
2021/08/15 09:39:33;;;;;;;7.18;6.07;;;31.00;45.60;;;;;;6272407;28;20459;-75
2021/08/15 09:42:41;;;;;;;7.60;6.33;;;31.50;45.30;;;;;;6278833;28;20502;-75
2021/08/15 09:45:45;;;;;;;8.38;6.45;;;31.90;43.50;;;;;;6294273;28;20490;-75
2021/08/15 09:48:47;;;;;;;8.70;6.50;;;32.00;43.10;;;;;;6297748;28;20581;-75
2021/08/15 09:51:50;;;;;;;8.07;6.63;;;32.30;42.60;;;;;;6296819;28;20986;-75
2021/08/15 09:54:57;;;;;;;9.68;6.35;;;32.40;43.00;;;;;;6297402;28;20484;-75
2021/08/15 09:58:16;;;;;;;7.47;5.60;;;32.50;42.70;;;;;;6298200;28;20498;-75
2021/08/15 10:01:18;;;;;;;8.43;6.03;;;32.80;42.70;;;;;;6297089;28;20411;-76
2021/08/15 10:04:22;;;;;;;7.70;6.60;;;33.10;42.00;;;;;;6297053;28;20505;-76
2021/08/15 10:07:25;;;;;;;8.45;6.25;;;33.40;41.30;;;;;;6295851;28;20432;-75
2021/08/15 10:10:27;;;;;;;8.60;5.80;;;33.50;40.80;;;;;;6297441;28;20438;-75
2021/08/15 10:13:29;;;;;;;8.13;5.80;;;33.50;40.60;;;;;;6296668;28;20489;-76
2021/08/15 10:16:34;;;;;;;8.23;6.20;;;33.40;41.20;;;;;;6296469;28;20430;-75
2021/08/15 10:19:39;;;;;;;11.50;5.65;;;33.40;41.10;;;;;;6297093;28;20909;-76
2021/08/15 10:22:42;;;;;;;8.43;6.10;;;33.50;40.70;;;;;;6295976;28;20434;-75
2021/08/15 10:25:45;;;;;;;9.05;6.38;;;33.60;40.40;;;;;;6281633;28;20467;-76
2021/08/15 10:28:47;;;;;;;8.30;6.17;;;33.60;39.80;;;;;;6293798;28;20976;-75
2021/08/15 10:32:18;;;;;;;6.70;5.68;;;33.70;40.00;;;;;;6296228;28;20439;-76
2021/08/15 10:35:20;;;;;;;7.45;6.00;;;34.00;40.00;;;;;;6295983;28;20754;-76
2021/08/15 10:38:31;;;;;;;6.43;5.57;;;34.10;39.10;;;;;;6295971;28;20530;-77
2021/08/15 10:41:54;;;;;;;10.77;5.90;;;34.10;39.40;;;;;;6295671;28;21054;-77
2021/08/15 10:45:02;;;;;;;8.03;5.67;;;34.10;40.00;;;;;;6282898;28;20422;-76
2021/08/15 10:48:24;;;;;;;8.05;5.95;;;34.20;39.70;;;;;;6295062;28;20876;-76
2021/08/15 10:51:43;;;;;;;6.50;5.88;;;34.40;39.00;;;;;;6294873;28;20500;-76
2021/08/15 10:55:02;;;;;;;7.70;6.25;;;34.40;39.10;;;;;;6295898;28;20522;-76
2021/08/15 10:58:04;;;;;;;9.40;6.22;;;34.40;38.80;;;;;;6295555;28;20434;-76
2021/08/15 11:01:06;;;;;;;9.27;5.95;;;34.20;38.80;;;;;;6295511;28;20440;-76
2021/08/15 11:04:08;;;;;;;9.15;5.97;;;34.00;39.10;;;;;;6294985;28;20419;-76
2021/08/15 11:07:35;;;;;;;9.75;5.60;;;34.20;38.90;;;;;;6263050;28;20446;-76
2021/08/15 11:11:03;;;;;;;8.25;5.10;;;34.30;38.80;;;;;;6246258;28;20928;-76
2021/08/15 11:14:25;;;;;;;7.30;6.60;;;34.50;38.80;;;;;;6260108;28;20401;-76
2021/08/15 11:17:28;;;;;;;7.38;5.75;;;34.70;38.70;;;;;;6269764;28;20405;-76
2021/08/15 11:20:36;;;;;;;9.63;6.43;;;34.80;37.90;;;;;;6269657;28;20784;-77
2021/08/15 11:23:42;;;;;;;8.95;5.65;;;34.70;38.50;;;;;;6269980;28;20418;-76
2021/08/15 11:26:45;;;;;;;7.85;5.82;;;34.80;38.70;;;;;;6269713;28;20519;-76
2021/08/15 11:29:50;;;;;;;11.18;6.22;;;35.20;38.50;;;;;;6269813;28;20996;-76
2021/08/15 11:32:53;;;;;;;7.63;5.65;;;35.40;37.60;;;;;;6270191;28;20547;-76
2021/08/15 11:35:55;;;;;;;7.80;6.05;;;35.60;37.20;;;;;;6269487;28;20428;-77
2021/08/15 11:38:58;;;;;;;8.80;6.28;;;35.70;37.20;;;;;;6269908;28;20512;-77
2021/08/15 11:42:01;;;;;;;6.70;5.85;;;35.90;37.20;;;;;;6270004;28;20798;-77
2021/08/15 11:45:05;;;;;;;18.02;6.35;;;36.00;37.80;;;;;;6273575;28;20419;-77
2021/08/15 11:48:09;;;;;;;7.25;5.70;;;36.10;36.00;;;;;;6290457;28;20483;-77
2021/08/15 11:51:11;;;;;;;17.05;5.63;;;36.00;36.60;;;;;;6293890;28;20812;-76
2021/08/15 11:54:14;;;;;;;7.23;5.00;;;36.00;37.50;;;;;;6294450;28;20431;-77
2021/08/15 11:57:16;;;;;;;6.40;5.80;;;36.10;36.90;;;;;;6293989;28;20509;-76
2021/08/15 12:00:26;;;;;;;14.02;6.43;;;36.10;37.00;;;;;;6293866;28;20444;-76
2021/08/15 12:03:28;;;;;;;10.02;6.13;;;36.10;36.70;;;;;;6298297;28;20435;-77
2021/08/15 12:06:30;;;;;;;7.90;5.43;;;36.20;36.80;;;;;;6298588;28;20652;-76
2021/08/15 12:09:33;;;;;;;7.22;5.85;;;36.40;36.30;;;;;;6298363;28;20419;-76
2021/08/15 12:12:35;;;;;;;6.80;6.13;;;36.50;36.20;;;;;;6296734;28;20495;-77
2021/08/15 12:15:37;;;;;;;8.98;6.10;;;36.70;35.80;;;;;;6273325;28;20555;-77
2021/08/15 12:18:40;;;;;;;10.07;6.87;;;36.90;36.50;;;;;;6274282;28;20439;-77
2021/08/15 12:21:42;;;;;;;9.53;6.90;;;37.10;35.60;;;;;;6273401;28;20503;-77
2021/08/15 12:24:47;;;;;;;7.90;6.03;;;37.20;35.40;;;;;;6273667;28;20472;-77
2021/08/15 12:27:49;;;;;;;8.63;5.80;;;37.00;35.60;;;;;;6273112;28;20418;-76
2021/08/15 12:30:51;;;;;;;6.43;5.57;;;37.20;35.00;;;;;;6274216;28;20985;-76
2021/08/15 12:34:08;;;;;;;7.33;5.93;;;37.30;35.60;;;;;;6274653;28;20490;-76
2021/08/15 12:37:16;;;;;;;7.50;6.10;;;37.50;35.70;;;;;;6273097;28;20413;-76
2021/08/15 12:40:27;;;;;;;14.10;6.60;;;37.70;35.10;;;;;;6272972;28;20506;-76
2021/08/15 12:43:28;;;;;;;8.20;5.97;;;37.80;34.40;;;;;;6273521;28;20415;-76
2021/08/15 12:46:30;;;;;;;7.47;5.85;;;37.90;34.80;;;;;;6268419;28;21080;-76
2021/08/15 12:49:44;;;;;;;9.52;6.53;;;37.90;34.30;;;;;;6292111;28;20929;-76
2021/08/15 12:52:48;;;;;;;7.65;6.05;;;37.80;34.30;;;;;;6298049;28;20545;-76
2021/08/15 12:55:53;;;;;;;9.20;7.30;;;37.80;35.00;;;;;;6297616;28;20490;-76
2021/08/15 12:58:54;;;;;;;9.00;6.38;;;37.80;34.60;;;;;;6298032;28;20438;-76
2021/08/15 13:01:56;;;;;;;9.73;6.43;;;37.90;34.20;;;;;;6297912;28;20431;-76
2021/08/15 13:04:59;;;;;;;8.35;6.95;;;37.90;34.20;;;;;;6297369;28;20444;-76
2021/08/15 13:08:01;;;;;;;7.50;6.53;;;37.80;33.80;;;;;;6296720;28;20930;-76
2021/08/15 13:11:05;;;;;;;8.73;6.53;;;37.90;34.10;;;;;;6297836;28;20483;-76
2021/08/15 13:14:08;;;;;;;7.07;5.97;;;38.00;34.10;;;;;;6297538;28;21055;-76
2021/08/15 13:17:10;;;;;;;7.40;6.38;;;38.00;34.50;;;;;;6297187;28;20412;-76
2021/08/15 13:20:15;;;;;;;11.27;6.60;;;38.00;34.40;;;;;;6297202;28;20884;-77
2021/08/15 13:23:16;;;;;;;7.85;6.65;;;38.10;34.20;;;;;;6297216;28;20454;-76
2021/08/15 13:26:20;;;;;;;8.05;6.28;;;38.10;34.30;;;;;;6296880;28;21034;-77
2021/08/15 13:29:21;;;;;;;12.27;6.25;;;37.80;34.20;;;;;;6296970;28;20411;-77
2021/08/15 13:32:24;;;;;;;7.55;6.80;;;37.40;34.90;;;;;;6296611;28;20415;-77
2021/08/15 13:35:26;;;;;;;14.17;6.57;;;37.30;35.60;;;;;;6296935;28;20457;-77
2021/08/15 13:38:28;;;;;;;8.75;6.38;;;37.30;35.60;;;;;;6298307;28;20428;-77
2021/08/15 13:41:31;;;;;;;9.73;6.78;;;37.30;35.10;;;;;;6298794;28;20412;-77
2021/08/15 13:44:33;;;;;;;9.30;6.47;;;37.30;35.60;;;;;;6298072;28;20431;-77
2021/08/15 13:47:35;;;;;;;11.50;7.10;;;37.30;35.60;;;;;;6292004;28;20496;-77
2021/08/15 13:50:37;;;;;;;12.18;8.50;;;37.10;35.60;;;;;;6274545;28;20940;-77
2021/08/15 13:53:39;;;;;;;10.70;7.23;;;36.80;36.10;;;;;;6272627;28;20496;-77
2021/08/15 13:56:42;;;;;;;10.35;6.78;;;36.60;36.70;;;;;;6272293;28;20456;-77
2021/08/15 13:59:44;;;;;;;10.30;7.28;;;36.40;37.40;;;;;;6271509;28;20910;-77
2021/08/15 14:02:46;;;;;;;10.25;6.85;;;36.10;37.60;;;;;;6272379;28;20437;-76
2021/08/15 14:05:48;;;;;;;10.23;6.95;;;35.70;38.40;;;;;;6271305;28;20734;-77
2021/08/15 14:08:50;;;;;;;10.10;6.37;;;35.50;38.60;;;;;;6272182;28;20504;-77
2021/08/15 14:11:53;;;;;;;8.18;6.47;;;35.20;39.00;;;;;;6272750;28;20413;-77
2021/08/15 14:14:57;;;;;;;12.25;7.15;;;34.90;39.60;;;;;;6251887;28;20804;-77
2021/08/15 14:17:59;;;;;;;9.02;6.80;;;34.60;40.00;;;;;;6248552;28;20435;-77
2021/08/15 14:21:01;;;;;;;9.07;7.35;;;34.40;43.20;;;;;;6246226;28;20780;-77
2021/08/15 14:24:04;;;;;;;15.35;7.65;;;34.20;40.80;;;;;;6246067;28;20493;-77
2021/08/15 14:27:07;;;;;;;12.63;8.80;;;34.20;41.80;;;;;;6245509;28;20506;-77
2021/08/15 14:30:10;;;;;;;10.35;7.68;;;34.10;41.20;;;;;;6246346;28;20522;-77
2021/08/15 14:33:13;;;;;;;8.77;7.80;;;33.90;43.10;;;;;;6246149;28;20416;-76
2021/08/15 14:36:15;;;;;;;11.52;7.85;;;33.80;42.70;;;;;;6261099;28;20938;-77
2021/08/15 14:39:18;;;;;;;12.65;8.60;;;33.60;42.50;;;;;;6269815;28;20491;-77
2021/08/15 14:42:21;;;;;;;13.65;8.60;;;33.40;42.70;;;;;;6270738;28;20537;-78
2021/08/15 14:45:23;;;;;;;9.60;8.05;;;33.30;43.00;;;;;;6269837;28;20585;-77
2021/08/15 14:48:25;;;;;;;9.88;7.50;;;33.10;43.10;;;;;;6278599;28;20444;-76
2021/08/15 14:51:29;;;;;;;11.15;7.25;;;33.00;43.50;;;;;;6291228;28;21033;-77
2021/08/15 14:54:33;;;;;;;11.20;7.63;;;33.00;43.80;;;;;;6294922;28;20472;-76
2021/08/15 14:57:36;;;;;;;22.92;10.77;;;32.90;45.70;;;;;;6294501;28;20415;-76
2021/08/15 15:00:39;;;;;;;17.40;10.35;;;32.50;55.50;;;;;;6294670;28;20464;-76
2021/08/15 15:03:40;;;;;;;16.73;10.00;;;31.00;61.60;;;;;;6294448;28;20411;-76
2021/08/15 15:06:42;;;;;;;16.48;9.48;;;29.90;66.70;;;;;;6294394;28;20473;-76
2021/08/15 15:09:44;;;;;;;13.00;8.32;;;29.20;68.50;;;;;;6259062;22;20992;-78
2021/08/15 15:12:47;;;;;;;13.90;8.33;;;28.90;66.20;;;;;;6245025;28;20415;-77
2021/08/15 15:15:49;;;;;;;8.65;6.93;;;28.60;69.00;;;;;;6244801;28;20464;-77
2021/08/15 15:18:51;;;;;;;10.77;7.73;;;28.50;64.60;;;;;;6223725;28;20562;-77
2021/08/15 15:21:53;;;;;;;10.32;7.53;;;28.40;68.50;;;;;;6213169;28;20493;-76
2021/08/15 15:24:55;;;;;;;12.52;8.35;;;28.40;69.60;;;;;;6214925;28;20506;-77
2021/08/15 15:27:58;;;;;;;8.75;7.63;;;28.60;70.50;;;;;;6221342;28;20428;-77
2021/08/15 15:31:00;;;;;;;14.38;9.13;;;28.90;71.90;;;;;;6221073;28;20535;-78
2021/08/15 15:34:02;;;;;;;10.13;8.32;;;29.20;70.60;;;;;;6221466;28;20566;-78
2021/08/15 15:37:06;;;;;;;11.02;8.20;;;29.30;71.80;;;;;;6222702;28;20849;-77
2021/08/15 15:40:10;;;;;;;11.30;7.72;;;29.40;68.60;;;;;;6226492;28;20417;-77
2021/08/15 15:43:13;;;;;;;10.70;8.13;;;29.40;68.50;;;;;;6226812;28;21152;-78
2021/08/15 15:46:18;;;;;;;10.70;7.25;;;29.40;68.10;;;;;;6226713;28;20590;-77